Emmet, South Dakota
Current Conditions -  °F | °C
As of 12:35 AM on Friday 31 Oct 2014 (Local Time) from KYKN Reporting Station
Overcast Overcast  
Wind Chill: 26°   Ceiling: 3100
Heat Index: 36°   Visibility: 10mi
Dew Point: 23°   Wind: 15mph
Humidity: 60%   Direction: 20°NNE
Pressure: 30.52"   Gusts: NA
Location:  43.1048°N, 96.7944°W
Report Text: KYKN 310535Z AUTO 02013KT 10SM OVC031 02/M05 A3052 RMK AO1
Loading
Personal Weather Stations






























Interactive Weather Map
Tropical Storm Tracking
New forecast layout! Learn more

10-Day Weather Forecast

Advertisements
Track Severe Weather on mobile